アダック島 の空港の天気 - METARとTAF

アダック空港 ( PADK / ADK ) - アメリカ アラスカ州アダック島
飛行場実況気象(Metar)
観測時間10/15 09:21 AKDT (10/15 17:21 UTC)
風向・風速西南西 13m/s 瞬間風速17m/s
視程10km以上
天気現象弱い雨
全天の8割程度の雲 雲底高度 610m
全天を覆う雲 雲底高度 1130m
気温6℃
湿度87%
気圧1006hPa
METARPADK 151721Z AUTO 24025G34KT 9SM -RA BKN020 OVC037 06/04 A2972 RMK AO2 PK WND 24036/1659 P0002
過去の天気等 Google飛行場航空写真 Wunderground天気予報

過去48時間のMETAR

飛行場予報(TAF)
データがありません